Main page
METAR-TAF:

METAR-TAF

Airports :

Šiauliai International Airport

Šiauliai, Lithuania

latitude: 55-53-38N, longitude: 023-23-42E, elevation: 135 m

Current weather observation

The report was made 36 minutes ago, at 03:20 UTC
Wind 6 kt from the North/Northeast
Temperature 8°C
Humidity 76%
Pressure 1009 hPa
Visibility 10 km or more
no clouds below 1500 m and no cumulonimbus

METAR: EYSA 030320Z 03006KT CAVOK 08/04 Q1009 BLU NOSIG

Time: 06:56 (03:56 UTC)

Forecast

The report was made 1 hour and 56 minutes ago, at 02:00 UTC
Forecast valid from 03 at 03 UTC to 03 at 12 UTC
Wind 5 kt from variable directions
Visibility: 7000 m
Becoming
from 03 at 05 UTC to 03 at 06 UTC
Broken clouds at a height of 3000 ft
Temporary
from 03 at 06 UTC to 03 at 12 UTC
Broken clouds at a height of 2000 ft, Cumulonimbus.

TAF: EYSA 030200Z 0303/0312 VRB05KT 7000 NSC BECMG 0305/0306 BKN030 TEMPO 0306/0312 BKN020CB

Weather observations and forecasts of more than 4000 airports (METAR and TAF reports).

The available stations are represented by yellow and red dots on the map.

Hover mouse over dot to see the name of the station.

Then click to see weather observations and forecasts.

To change the map : click on the green buttons with a black cross to zoom in, on the green button with a dash to zoom out, or on the green arrows for adjacent maps.


METAR-TAF: